sensor_id;sensor_type;location;lat;lon;timestamp;pressure;altitude;pressure_sealevel;temperature;humidity
49945;BME280;35838;49.134;9.212;2023-02-19T00:00:24;100437.28;;;9.20;96.20
49945;BME280;35838;49.134;9.212;2023-02-19T00:01:58;100444.13;;;9.14;95.87
49945;BME280;35838;49.134;9.212;2023-02-19T00:03:31;100438.88;;;9.07;96.33
49945;BME280;35838;49.134;9.212;2023-02-19T00:05:05;100433.75;;;9.14;96.45
49945;BME280;35838;49.134;9.212;2023-02-19T00:06:39;100432.75;;;9.01;96.04
49945;BME280;35838;49.134;9.212;2023-02-19T00:08:12;100433.69;;;9.07;96.36
49945;BME280;35838;49.134;9.212;2023-02-19T00:09:43;100430.38;;;9.19;96.06
49945;BME280;35838;49.134;9.212;2023-02-19T00:11:18;100436.44;;;9.20;95.96
49945;BME280;35838;49.134;9.212;2023-02-19T00:12:51;100439.84;;;9.17;95.72
49945;BME280;35838;49.134;9.212;2023-02-19T00:14:25;100450.13;;;9.09;96.27
49945;BME280;35838;49.134;9.212;2023-02-19T00:16:01;100449.19;;;9.01;96.30
49945;BME280;35838;49.134;9.212;2023-02-19T00:17:37;100468.09;;;8.97;96.47
49945;BME280;35838;49.134;9.212;2023-02-19T00:19:12;100455.06;;;8.88;96.68
49945;BME280;35838;49.134;9.212;2023-02-19T00:20:46;100450.03;;;9.00;97.25
49945;BME280;35838;49.134;9.212;2023-02-19T00:22:19;100449.13;;;8.97;97.05
49945;BME280;35838;49.134;9.212;2023-02-19T00:23:54;100448.38;;;9.07;96.59
49945;BME280;35838;49.134;9.212;2023-02-19T00:25:28;100448.34;;;9.04;96.43
49945;BME280;35838;49.134;9.212;2023-02-19T00:27:02;100457.91;;;9.09;95.85
49945;BME280;35838;49.134;9.212;2023-02-19T00:28:35;100451.09;;;9.19;95.24
49945;BME280;35838;49.134;9.212;2023-02-19T00:30:07;100451.13;;;9.22;94.79
49945;BME280;35838;49.134;9.212;2023-02-19T00:31:43;100455.50;;;9.31;94.49
49945;BME280;35838;49.134;9.212;2023-02-19T00:33:17;100448.63;;;9.35;93.82
49945;BME280;35838;49.134;9.212;2023-02-19T00:34:50;100448.50;;;9.18;93.69
49945;BME280;35838;49.134;9.212;2023-02-19T00:36:24;100439.91;;;9.23;93.75
49945;BME280;35838;49.134;9.212;2023-02-19T00:37:58;100431.13;;;9.07;94.17
49945;BME280;35838;49.134;9.212;2023-02-19T00:39:32;100432.78;;;9.02;94.36
49945;BME280;35838;49.134;9.212;2023-02-19T00:41:05;100429.25;;;8.94;93.87
49945;BME280;35838;49.134;9.212;2023-02-19T00:42:48;100437.13;;;9.06;94.49
49945;BME280;35838;49.134;9.212;2023-02-19T00:44:22;100439.03;;;9.21;94.67
49945;BME280;35838;49.134;9.212;2023-02-19T00:45:55;100421.50;;;8.96;95.06
49945;BME280;35838;49.134;9.212;2023-02-19T00:47:29;100422.44;;;9.05;95.05
49945;BME280;35838;49.134;9.212;2023-02-19T00:49:03;100421.50;;;8.97;94.94
49945;BME280;35838;49.134;9.212;2023-02-19T00:50:36;100424.88;;;8.90;95.33
49945;BME280;35838;49.134;9.212;2023-02-19T00:52:10;100418.91;;;8.97;95.26
49945;BME280;35838;49.134;9.212;2023-02-19T00:53:44;100410.19;;;8.86;95.45
49945;BME280;35838;49.134;9.212;2023-02-19T00:55:17;100415.44;;;8.95;95.98
49945;BME280;35838;49.134;9.212;2023-02-19T00:56:51;100418.81;;;8.88;96.04
49945;BME280;35838;49.134;9.212;2023-02-19T00:58:24;100387.84;;;8.97;96.25
49945;BME280;35838;49.134;9.212;2023-02-19T00:59:55;100381.03;;;9.04;96.00
49945;BME280;35838;49.134;9.212;2023-02-19T01:01:29;100375.03;;;9.09;95.32
49945;BME280;35838;49.134;9.212;2023-02-19T01:03:05;100395.75;;;9.09;95.05
49945;BME280;35838;49.134;9.212;2023-02-19T01:04:39;100401.69;;;8.99;95.35
49945;BME280;35838;49.134;9.212;2023-02-19T01:06:14;100409.41;;;8.96;96.46
49945;BME280;35838;49.134;9.212;2023-02-19T01:07:48;100406.97;;;9.08;96.52
49945;BME280;35838;49.134;9.212;2023-02-19T01:09:22;100404.28;;;8.99;96.01
49945;BME280;35838;49.134;9.212;2023-02-19T01:10:55;100409.50;;;9.05;96.56
49945;BME280;35838;49.134;9.212;2023-02-19T01:12:29;100414.72;;;9.08;96.16
49945;BME280;35838;49.134;9.212;2023-02-19T01:14:03;100416.22;;;8.88;95.90
49945;BME280;35838;49.134;9.212;2023-02-19T01:15:36;100409.31;;;8.85;96.87
49945;BME280;35838;49.134;9.212;2023-02-19T01:17:10;100404.91;;;8.80;96.90
49945;BME280;35838;49.134;9.212;2023-02-19T01:18:46;100408.41;;;8.80;97.23
49945;BME280;35838;49.134;9.212;2023-02-19T01:20:20;100410.97;;;8.80;96.72
49945;BME280;35838;49.134;9.212;2023-02-19T01:21:53;100419.56;;;8.77;97.03
49945;BME280;35838;49.134;9.212;2023-02-19T01:23:27;100423.03;;;8.76;97.35
49945;BME280;35838;49.134;9.212;2023-02-19T01:25:00;100416.13;;;8.78;97.62
49945;BME280;35838;49.134;9.212;2023-02-19T01:26:34;100397.16;;;8.76;97.62
49945;BME280;35838;49.134;9.212;2023-02-19T01:28:08;100392.81;;;8.78;98.06
49945;BME280;35838;49.134;9.212;2023-02-19T01:29:43;100390.22;;;8.75;97.58
49945;BME280;35838;49.134;9.212;2023-02-19T01:31:17;100404.06;;;8.79;97.75
49945;BME280;35838;49.134;9.212;2023-02-19T01:32:51;100407.47;;;8.75;97.37
49945;BME280;35838;49.134;9.212;2023-02-19T01:34:27;100383.31;;;8.77;97.80
49945;BME280;35838;49.134;9.212;2023-02-19T01:36:03;100395.34;;;8.72;98.29
49945;BME280;35838;49.134;9.212;2023-02-19T01:37:34;100385.91;;;8.74;98.90
49945;BME280;35838;49.134;9.212;2023-02-19T01:39:09;100379.03;;;8.80;98.85
49945;BME280;35838;49.134;9.212;2023-02-19T01:40:43;100377.28;;;8.75;98.88
49945;BME280;35838;49.134;9.212;2023-02-19T01:42:16;100392.81;;;8.78;99.06
49945;BME280;35838;49.134;9.212;2023-02-19T01:43:58;100394.56;;;8.76;99.13
49945;BME280;35838;49.134;9.212;2023-02-19T01:45:32;100392.78;;;8.74;99.21
49945;BME280;35838;49.134;9.212;2023-02-19T01:47:06;100399.84;;;8.87;99.31
49945;BME280;35838;49.134;9.212;2023-02-19T01:48:39;100389.38;;;8.80;99.08
49945;BME280;35838;49.134;9.212;2023-02-19T01:50:16;100391.19;;;8.85;99.37
49945;BME280;35838;49.134;9.212;2023-02-19T01:51:48;100392.72;;;8.69;99.07
49945;BME280;35838;49.134;9.212;2023-02-19T01:53:25;100402.16;;;8.66;99.76
49945;BME280;35838;49.134;9.212;2023-02-19T01:55:01;100393.59;;;8.68;99.85
49945;BME280;35838;49.134;9.212;2023-02-19T01:56:35;100391.03;;;8.71;99.97
49945;BME280;35838;49.134;9.212;2023-02-19T01:58:10;100385.91;;;8.76;99.83
49945;BME280;35838;49.134;9.212;2023-02-19T01:59:44;100378.22;;;8.84;100.00
49945;BME280;35838;49.134;9.212;2023-02-19T02:01:16;100376.44;;;8.80;100.00
49945;BME280;35838;49.134;9.212;2023-02-19T02:02:50;100378.88;;;8.66;100.00
49945;BME280;35838;49.134;9.212;2023-02-19T02:04:24;100392.66;;;8.63;100.00
49945;BME280;35838;49.134;9.212;2023-02-19T02:06:01;100386.66;;;8.66;100.00
49945;BME280;35838;49.134;9.212;2023-02-19T02:07:35;100385.75;;;8.62;100.00
49945;BME280;35838;49.134;9.212;2023-02-19T02:09:21;100376.22;;;8.58;100.00
49945;BME280;35838;49.134;9.212;2023-02-19T02:11:08;100375.50;;;8.71;100.00
49945;BME280;35838;49.134;9.212;2023-02-19T02:12:42;100371.22;;;8.72;100.00
49945;BME280;35838;49.134;9.212;2023-02-19T02:14:15;100366.03;;;8.73;100.00
49945;BME280;35838;49.134;9.212;2023-02-19T02:15:51;100366.09;;;8.76;100.00
49945;BME280;35838;49.134;9.212;2023-02-19T02:17:27;100362.75;;;8.90;100.00
49945;BME280;35838;49.134;9.212;2023-02-19T02:20:41;100341.19;;;8.92;100.00
49945;BME280;35838;49.134;9.212;2023-02-19T02:22:24;100351.56;;;8.91;100.00
49945;BME280;35838;49.134;9.212;2023-02-19T02:24:10;100362.56;;;8.71;100.00
49945;BME280;35838;49.134;9.212;2023-02-19T02:25:55;100358.28;;;8.73;100.00
49945;BME280;35838;49.134;9.212;2023-02-19T02:27:37;100356.38;;;8.60;100.00
49945;BME280;35838;49.134;9.212;2023-02-19T02:29:20;100362.44;;;8.59;100.00
49945;BME280;35838;49.134;9.212;2023-02-19T02:31:02;100366.78;;;8.65;100.00
49945;BME280;35838;49.134;9.212;2023-02-19T02:32:38;100362.44;;;8.60;100.00
49945;BME280;35838;49.134;9.212;2023-02-19T02:34:14;100360.75;;;8.64;100.00
49945;BME280;35838;49.134;9.212;2023-02-19T02:35:47;100359.91;;;8.65;100.00
49945;BME280;35838;49.134;9.212;2023-02-19T02:37:21;100365.94;;;8.66;100.00
49945;BME280;35838;49.134;9.212;2023-02-19T02:38:56;100368.41;;;8.55;100.00
49945;BME280;35838;49.134;9.212;2023-02-19T02:40:30;100357.88;;;8.42;100.00
49945;BME280;35838;49.134;9.212;2023-02-19T02:42:01;100354.56;;;8.50;100.00
49945;BME280;35838;49.134;9.212;2023-02-19T02:43:47;100362.34;;;8.51;100.00
49945;BME280;35838;49.134;9.212;2023-02-19T02:45:25;100353.03;;;8.67;100.00
49945;BME280;35838;49.134;9.212;2023-02-19T02:47:08;100347.94;;;8.75;100.00
49945;BME280;35838;49.134;9.212;2023-02-19T02:49:03;100347.78;;;8.61;100.00
49945;BME280;35838;49.134;9.212;2023-02-19T02:50:38;100341.84;;;8.71;100.00
49945;BME280;35838;49.134;9.212;2023-02-19T02:52:10;100340.09;;;8.67;100.00
49945;BME280;35838;49.134;9.212;2023-02-19T02:54:09;100333.19;;;8.66;99.76
49945;BME280;35838;49.134;9.212;2023-02-19T02:55:55;100349.56;;;8.65;99.41
49945;BME280;35838;49.134;9.212;2023-02-19T02:57:27;100346.22;;;8.75;99.42
49945;BME280;35838;49.134;9.212;2023-02-19T02:59:01;100341.88;;;8.73;98.95
49945;BME280;35838;49.134;9.212;2023-02-19T03:00:36;100340.19;;;8.76;98.67
49945;BME280;35838;49.134;9.212;2023-02-19T03:02:25;100342.00;;;8.87;98.65
49945;BME280;35838;49.134;9.212;2023-02-19T03:04:02;100346.34;;;8.88;98.08
49945;BME280;35838;49.134;9.212;2023-02-19T03:05:34;100335.16;;;8.92;97.37
49945;BME280;35838;49.134;9.212;2023-02-19T03:07:20;100342.84;;;8.84;97.56
49945;BME280;35838;49.134;9.212;2023-02-19T03:08:55;100324.72;;;8.84;97.41
49945;BME280;35838;49.134;9.212;2023-02-19T03:10:32;100340.25;;;8.81;97.06
49945;BME280;35838;49.134;9.212;2023-02-19T03:12:07;100325.63;;;8.88;96.82
49945;BME280;35838;49.134;9.212;2023-02-19T03:13:55;100330.81;;;8.86;96.85
49945;BME280;35838;49.134;9.212;2023-02-19T03:15:44;100330.09;;;9.03;96.59
49945;BME280;35838;49.134;9.212;2023-02-19T03:17:35;100329.22;;;9.02;96.40
49945;BME280;35838;49.134;9.212;2023-02-19T03:19:24;100330.00;;;8.95;96.38
49945;BME280;35838;49.134;9.212;2023-02-19T03:20:59;100317.06;;;8.92;96.34
49945;BME280;35838;49.134;9.212;2023-02-19T03:22:35;100326.59;;;8.99;95.92
49945;BME280;35838;49.134;9.212;2023-02-19T03:24:09;100320.44;;;8.85;96.00
49945;BME280;35838;49.134;9.212;2023-02-19T03:25:56;100327.50;;;9.01;95.69
49945;BME280;35838;49.134;9.212;2023-02-19T03:27:33;100329.06;;;8.87;95.44
49945;BME280;35838;49.134;9.212;2023-02-19T03:29:07;100327.44;;;8.97;95.56
49945;BME280;35838;49.134;9.212;2023-02-19T03:30:55;100326.69;;;9.07;94.54
49945;BME280;35838;49.134;9.212;2023-02-19T03:32:29;100323.94;;;8.91;93.70
49945;BME280;35838;49.134;9.212;2023-02-19T03:34:09;100318.69;;;8.84;94.09
49945;BME280;35838;49.134;9.212;2023-02-19T03:35:44;100324.69;;;8.78;94.54
49945;BME280;35838;49.134;9.212;2023-02-19T03:37:19;100319.59;;;8.87;94.63
49945;BME280;35838;49.134;9.212;2023-02-19T03:38:55;100325.53;;;8.77;94.01
49945;BME280;35838;49.134;9.212;2023-02-19T03:40:33;100337.63;;;8.76;94.45
49945;BME280;35838;49.134;9.212;2023-02-19T03:42:14;100337.66;;;8.83;94.10
49945;BME280;35838;49.134;9.212;2023-02-19T03:43:51;100336.78;;;8.82;93.72
49945;BME280;35838;49.134;9.212;2023-02-19T03:45:31;100329.75;;;8.70;93.81
49945;BME280;35838;49.134;9.212;2023-02-19T03:47:09;100335.88;;;8.75;94.02
49945;BME280;35838;49.134;9.212;2023-02-19T03:48:45;100341.84;;;8.71;93.79
49945;BME280;35838;49.134;9.212;2023-02-19T03:50:23;100339.31;;;8.77;94.41
49945;BME280;35838;49.134;9.212;2023-02-19T03:51:59;100339.47;;;8.90;93.76
49945;BME280;35838;49.134;9.212;2023-02-19T03:53:36;100340.25;;;8.81;93.14
49945;BME280;35838;49.134;9.212;2023-02-19T03:55:12;100342.81;;;8.80;93.51
49945;BME280;35838;49.134;9.212;2023-02-19T03:56:50;100347.13;;;8.79;93.42
49945;BME280;35838;49.134;9.212;2023-02-19T03:58:26;100341.06;;;8.75;93.53
49945;BME280;35838;49.134;9.212;2023-02-19T04:00:03;100332.34;;;8.70;93.41
49945;BME280;35838;49.134;9.212;2023-02-19T04:01:38;100335.88;;;8.75;93.50
49945;BME280;35838;49.134;9.212;2023-02-19T04:03:14;100353.16;;;8.80;93.36
49945;BME280;35838;49.134;9.212;2023-02-19T04:04:50;100346.25;;;8.78;92.96
49945;BME280;35838;49.134;9.212;2023-02-19T04:06:28;100352.25;;;8.74;93.07
49945;BME280;35838;49.134;9.212;2023-02-19T04:08:03;100350.47;;;8.69;93.26
49945;BME280;35838;49.134;9.212;2023-02-19T04:09:40;100357.31;;;8.64;93.51
49945;BME280;35838;49.134;9.212;2023-02-19T04:11:15;100360.75;;;8.62;93.19
49945;BME280;35838;49.134;9.212;2023-02-19T04:12:52;100357.28;;;8.62;93.46
49945;BME280;35838;49.134;9.212;2023-02-19T04:14:25;100349.50;;;8.60;93.23
49945;BME280;35838;49.134;9.212;2023-02-19T04:16:02;100361.59;;;8.61;93.19
49945;BME280;35838;49.134;9.212;2023-02-19T04:17:40;100356.44;;;8.63;93.15
49945;BME280;35838;49.134;9.212;2023-02-19T04:19:17;100347.94;;;8.73;92.76
49945;BME280;35838;49.134;9.212;2023-02-19T04:20:52;100361.66;;;8.66;92.69
49945;BME280;35838;49.134;9.212;2023-02-19T04:22:29;100366.72;;;8.57;92.87
49945;BME280;35838;49.134;9.212;2023-02-19T04:24:05;100367.53;;;8.53;93.05
49945;BME280;35838;49.134;9.212;2023-02-19T04:25:40;100359.66;;;8.46;93.29
49945;BME280;35838;49.134;9.212;2023-02-19T04:27:13;100364.03;;;8.49;93.80
49945;BME280;35838;49.134;9.212;2023-02-19T04:28:47;100374.50;;;8.58;93.83
49945;BME280;35838;49.134;9.212;2023-02-19T04:30:20;100385.72;;;8.59;93.75
49945;BME280;35838;49.134;9.212;2023-02-19T04:31:54;100384.72;;;8.49;93.78
49945;BME280;35838;49.134;9.212;2023-02-19T04:33:28;100371.84;;;8.54;94.12
49945;BME280;35838;49.134;9.212;2023-02-19T04:35:01;100388.06;;;8.40;94.67
49945;BME280;35838;49.134;9.212;2023-02-19T04:36:32;100391.44;;;8.36;94.96
49945;BME280;35838;49.134;9.212;2023-02-19T04:38:08;100385.47;;;8.42;95.54
49945;BME280;35838;49.134;9.212;2023-02-19T04:39:43;100393.19;;;8.39;95.50
49945;BME280;35838;49.134;9.212;2023-02-19T04:41:15;100390.53;;;8.31;95.67
49945;BME280;35838;49.134;9.212;2023-02-19T04:42:48;100384.47;;;8.29;95.83
49945;BME280;35838;49.134;9.212;2023-02-19T04:44:22;100388.81;;;8.33;96.10
49945;BME280;35838;49.134;9.212;2023-02-19T04:45:58;100387.09;;;8.32;95.84
49945;BME280;35838;49.134;9.212;2023-02-19T04:47:30;100392.38;;;8.41;95.40
49945;BME280;35838;49.134;9.212;2023-02-19T04:49:03;100382.03;;;8.43;94.86
49945;BME280;35838;49.134;9.212;2023-02-19T04:50:37;100382.03;;;8.43;94.65
49945;BME280;35838;49.134;9.212;2023-02-19T04:52:11;100400.19;;;8.46;94.35
49945;BME280;35838;49.134;9.212;2023-02-19T04:53:47;100395.81;;;8.40;94.50
49945;BME280;35838;49.134;9.212;2023-02-19T04:55:21;100391.44;;;8.38;94.75
49945;BME280;35838;49.134;9.212;2023-02-19T04:56:54;100380.28;;;8.40;94.92
49945;BME280;35838;49.134;9.212;2023-02-19T04:58:28;100381.19;;;8.44;94.80
49945;BME280;35838;49.134;9.212;2023-02-19T05:00:03;100383.88;;;8.49;95.05
49945;BME280;35838;49.134;9.212;2023-02-19T05:01:37;100387.09;;;8.32;95.40
49945;BME280;35838;49.134;9.212;2023-02-19T05:03:11;100381.13;;;8.39;95.44
49945;BME280;35838;49.134;9.212;2023-02-19T05:04:44;100388.91;;;8.39;95.71
49945;BME280;35838;49.134;9.212;2023-02-19T05:06:16;100376.75;;;8.35;95.70
49945;BME280;35838;49.134;9.212;2023-02-19T05:07:49;100363.03;;;8.39;95.61
49945;BME280;35838;49.134;9.212;2023-02-19T05:09:23;100361.34;;;8.43;95.34
49945;BME280;35838;49.134;9.212;2023-02-19T05:10:57;100377.66;;;8.37;95.08
49945;BME280;35838;49.134;9.212;2023-02-19T05:12:31;100378.56;;;8.39;95.07
49945;BME280;35838;49.134;9.212;2023-02-19T05:14:04;100383.75;;;8.41;95.21
49945;BME280;35838;49.134;9.212;2023-02-19T05:15:38;100398.47;;;8.46;94.36
49945;BME280;35838;49.134;9.212;2023-02-19T05:17:11;100383.75;;;8.41;94.18
49945;BME280;35838;49.134;9.212;2023-02-19T05:18:45;100394.03;;;8.36;94.36
49945;BME280;35838;49.134;9.212;2023-02-19T05:20:16;100381.97;;;8.37;94.59
49945;BME280;35838;49.134;9.212;2023-02-19T05:21:52;100369.13;;;8.43;94.78
49945;BME280;35838;49.134;9.212;2023-02-19T05:23:26;100368.22;;;8.39;94.96
49945;BME280;35838;49.134;9.212;2023-02-19T05:25:00;100372.47;;;8.36;96.14
49945;BME280;35838;49.134;9.212;2023-02-19T05:26:34;100368.16;;;8.36;96.58
49945;BME280;35838;49.134;9.212;2023-02-19T05:28:08;100368.16;;;8.36;96.59
49945;BME280;35838;49.134;9.212;2023-02-19T05:29:48;100358.63;;;8.32;97.68
49945;BME280;35838;49.134;9.212;2023-02-19T05:31:22;100370.69;;;8.33;98.42
49945;BME280;35838;49.134;9.212;2023-02-19T05:32:55;100369.78;;;8.28;98.42
49945;BME280;35838;49.134;9.212;2023-02-19T05:34:26;100364.53;;;8.22;98.83
49945;BME280;35838;49.134;9.212;2023-02-19T05:36:03;100375.84;;;8.28;99.26
49945;BME280;35838;49.134;9.212;2023-02-19T05:37:37;100369.91;;;8.39;99.24
49945;BME280;35838;49.134;9.212;2023-02-19T05:39:10;100367.19;;;8.28;98.80
49945;BME280;35838;49.134;9.212;2023-02-19T05:40:44;100370.63;;;8.25;99.30
49945;BME280;35838;49.134;9.212;2023-02-19T05:42:18;100377.47;;;8.23;98.76
49945;BME280;35838;49.134;9.212;2023-02-19T05:43:52;100375.88;;;8.33;98.42
49945;BME280;35838;49.134;9.212;2023-02-19T05:45:25;100367.19;;;8.29;98.27
49945;BME280;35838;49.134;9.212;2023-02-19T05:46:56;100368.16;;;8.36;97.52
49945;BME280;35838;49.134;9.212;2023-02-19T05:48:30;100378.50;;;8.36;97.22
49945;BME280;35838;49.134;9.212;2023-02-19T05:50:04;100389.84;;;8.46;97.35
49945;BME280;35838;49.134;9.212;2023-02-19T05:51:38;100389.75;;;8.40;96.67
49945;BME280;35838;49.134;9.212;2023-02-19T05:53:11;100388.06;;;8.42;96.96
49945;BME280;35838;49.134;9.212;2023-02-19T05:54:45;100395.13;;;8.54;96.94
49945;BME280;35838;49.134;9.212;2023-02-19T05:56:28;100401.91;;;8.45;96.20
49945;BME280;35838;49.134;9.212;2023-02-19T05:58:02;100394.97;;;8.43;96.44
49945;BME280;35838;49.134;9.212;2023-02-19T05:59:36;100399.41;;;8.50;95.98
49945;BME280;35838;49.134;9.212;2023-02-19T06:01:13;100395.97;;;8.53;95.83
49945;BME280;35838;49.134;9.212;2023-02-19T06:02:48;100403.78;;;8.54;95.77
49945;BME280;35838;49.134;9.212;2023-02-19T06:04:21;100401.06;;;8.46;95.70
49945;BME280;35838;49.134;9.212;2023-02-19T06:05:55;100400.16;;;8.44;95.84
49945;BME280;35838;49.134;9.212;2023-02-19T06:07:29;100408.03;;;8.51;96.09
49945;BME280;35838;49.134;9.212;2023-02-19T06:09:03;100400.25;;;8.51;95.82
49945;BME280;35838;49.134;9.212;2023-02-19T06:10:36;100406.16;;;8.40;95.85
49945;BME280;35838;49.134;9.212;2023-02-19T06:12:12;100402.88;;;8.52;95.79
49945;BME280;35838;49.134;9.212;2023-02-19T06:13:46;100396.94;;;8.59;95.25
49945;BME280;35838;49.134;9.212;2023-02-19T06:15:20;100410.66;;;8.54;95.37
49945;BME280;35838;49.134;9.212;2023-02-19T06:16:53;100401.19;;;8.56;95.32
49945;BME280;35838;49.134;9.212;2023-02-19T06:18:27;100402.88;;;8.52;95.00
49945;BME280;35838;49.134;9.212;2023-02-19T06:20:01;100415.94;;;8.65;94.92
49945;BME280;35838;49.134;9.212;2023-02-19T06:21:35;100402.16;;;8.62;93.98
49945;BME280;35838;49.134;9.212;2023-02-19T06:23:08;100400.41;;;8.63;94.00
49945;BME280;35838;49.134;9.212;2023-02-19T06:24:42;100406.50;;;8.65;94.21
49945;BME280;35838;49.134;9.212;2023-02-19T06:26:17;100402.97;;;8.60;93.88
49945;BME280;35838;49.134;9.212;2023-02-19T06:27:53;100414.25;;;8.67;94.26
49945;BME280;35838;49.134;9.212;2023-02-19T06:29:24;100415.22;;;8.73;93.77
49945;BME280;35838;49.134;9.212;2023-02-19T06:30:58;100412.56;;;8.67;93.88
49945;BME280;35838;49.134;9.212;2023-02-19T06:32:29;100410.84;;;8.69;93.39
49945;BME280;35838;49.134;9.212;2023-02-19T06:34:03;100421.84;;;8.51;93.88
49945;BME280;35838;49.134;9.212;2023-02-19T06:35:37;100420.97;;;8.51;94.17
49945;BME280;35838;49.134;9.212;2023-02-19T06:37:10;100421.91;;;8.57;93.94
49945;BME280;35838;49.134;9.212;2023-02-19T06:38:44;100426.19;;;8.55;93.55
49945;BME280;35838;49.134;9.212;2023-02-19T06:40:18;100425.44;;;8.64;93.31
49945;BME280;35838;49.134;9.212;2023-02-19T06:41:53;100434.97;;;8.67;92.90
49945;BME280;35838;49.134;9.212;2023-02-19T06:43:30;100448.78;;;8.67;93.09
49945;BME280;35838;49.134;9.212;2023-02-19T06:45:04;100436.59;;;8.58;92.63
49945;BME280;35838;49.134;9.212;2023-02-19T06:46:37;100446.03;;;8.55;92.75
49945;BME280;35838;49.134;9.212;2023-02-19T06:48:08;100442.56;;;8.53;92.99
49945;BME280;35838;49.134;9.212;2023-02-19T06:49:42;100452.03;;;8.52;92.96
49945;BME280;35838;49.134;9.212;2023-02-19T06:51:16;100461.63;;;8.61;92.71
49945;BME280;35838;49.134;9.212;2023-02-19T06:52:53;100453.78;;;8.53;92.53
49945;BME280;35838;49.134;9.212;2023-02-19T06:54:26;100445.19;;;8.57;92.50
49945;BME280;35838;49.134;9.212;2023-02-19T06:56:01;100445.25;;;8.62;92.73
49945;BME280;35838;49.134;9.212;2023-02-19T06:57:36;100453.06;;;8.65;92.67
49945;BME280;35838;49.134;9.212;2023-02-19T06:59:12;100456.56;;;8.70;92.11
49945;BME280;35838;49.134;9.212;2023-02-19T07:00:46;100444.47;;;8.66;91.78
49945;BME280;35838;49.134;9.212;2023-02-19T07:02:20;100452.22;;;8.68;92.18
49945;BME280;35838;49.134;9.212;2023-02-19T07:03:55;100458.38;;;8.74;92.49
49945;BME280;35838;49.134;9.212;2023-02-19T07:05:26;100455.00;;;8.82;92.06
49945;BME280;35838;49.134;9.212;2023-02-19T07:06:59;100461.06;;;8.85;91.63
49945;BME280;35838;49.134;9.212;2023-02-19T07:08:33;100455.00;;;8.82;91.05
49945;BME280;35838;49.134;9.212;2023-02-19T07:10:07;100469.63;;;8.80;90.96
49945;BME280;35838;49.134;9.212;2023-02-19T07:11:40;100477.50;;;8.86;90.74
49945;BME280;35838;49.134;9.212;2023-02-19T07:13:14;100474.13;;;8.96;90.52
49945;BME280;35838;49.134;9.212;2023-02-19T07:14:47;100473.88;;;8.74;90.45
49945;BME280;35838;49.134;9.212;2023-02-19T07:16:21;100478.34;;;8.86;90.64
49945;BME280;35838;49.134;9.212;2023-02-19T07:17:55;100481.72;;;8.82;90.50
49945;BME280;35838;49.134;9.212;2023-02-19T07:19:28;100488.47;;;8.69;90.61
49945;BME280;35838;49.134;9.212;2023-02-19T07:21:02;100490.25;;;8.73;90.85
49945;BME280;35838;49.134;9.212;2023-02-19T07:22:33;100501.53;;;8.78;90.32
49945;BME280;35838;49.134;9.212;2023-02-19T07:24:07;100502.53;;;8.90;90.54
49945;BME280;35838;49.134;9.212;2023-02-19T07:25:41;100502.53;;;8.88;89.85
49945;BME280;35838;49.134;9.212;2023-02-19T07:27:14;100500.00;;;8.93;90.09
49945;BME280;35838;49.134;9.212;2023-02-19T07:28:49;100498.38;;;9.03;89.81
49945;BME280;35838;49.134;9.212;2023-02-19T07:30:25;100496.47;;;8.88;89.81
49945;BME280;35838;49.134;9.212;2023-02-19T07:31:59;100507.00;;;9.00;89.75
49945;BME280;35838;49.134;9.212;2023-02-19T07:33:33;100505.19;;;8.96;90.14
49945;BME280;35838;49.134;9.212;2023-02-19T07:35:07;100505.19;;;8.94;90.34
49945;BME280;35838;49.134;9.212;2023-02-19T07:36:41;100508.56;;;8.87;90.64
49945;BME280;35838;49.134;9.212;2023-02-19T07:38:14;100513.72;;;8.86;90.53
49945;BME280;35838;49.134;9.212;2023-02-19T07:39:46;100518.69;;;8.70;91.30
49945;BME280;35838;49.134;9.212;2023-02-19T07:41:20;100520.34;;;8.65;91.58
49945;BME280;35838;49.134;9.212;2023-02-19T07:42:53;100523.84;;;8.67;92.07
49945;BME280;35838;49.134;9.212;2023-02-19T07:44:27;100522.13;;;8.69;92.01
49945;BME280;35838;49.134;9.212;2023-02-19T07:46:04;100527.53;;;8.85;92.26
49945;BME280;35838;49.134;9.212;2023-02-19T07:47:35;100531.06;;;8.93;91.74
49945;BME280;35838;49.134;9.212;2023-02-19T07:49:10;100519.00;;;8.95;90.90
49945;BME280;35838;49.134;9.212;2023-02-19T07:50:49;100520.53;;;8.81;91.30
49945;BME280;35838;49.134;9.212;2023-02-19T07:52:23;100525.59;;;8.71;91.86
49945;BME280;35838;49.134;9.212;2023-02-19T07:53:58;100520.50;;;8.77;91.96
49945;BME280;35838;49.134;9.212;2023-02-19T07:55:32;100528.16;;;8.68;91.93
49945;BME280;35838;49.134;9.212;2023-02-19T07:57:03;100529.88;;;8.69;92.17
49945;BME280;35838;49.134;9.212;2023-02-19T07:58:37;100517.13;;;8.82;91.92
49945;BME280;35838;49.134;9.212;2023-02-19T08:00:12;100524.09;;;8.89;91.67
49945;BME280;35838;49.134;9.212;2023-02-19T08:01:48;100531.81;;;8.84;91.15
49945;BME280;35838;49.134;9.212;2023-02-19T08:03:34;100524.81;;;8.77;91.62
49945;BME280;35838;49.134;9.212;2023-02-19T08:05:08;100523.19;;;8.84;91.36
49945;BME280;35838;49.134;9.212;2023-02-19T08:06:43;100525.03;;;8.94;90.77
49945;BME280;35838;49.134;9.212;2023-02-19T08:08:16;100519.81;;;8.89;90.42
49945;BME280;35838;49.134;9.212;2023-02-19T08:09:50;100516.31;;;8.87;90.76
49945;BME280;35838;49.134;9.212;2023-02-19T08:11:43;100537.75;;;8.75;90.80
49945;BME280;35838;49.134;9.212;2023-02-19T08:13:29;100534.38;;;8.83;90.91
49945;BME280;35838;49.134;9.212;2023-02-19T08:15:00;100532.72;;;8.88;90.67
49945;BME280;35838;49.134;9.212;2023-02-19T08:16:34;100534.50;;;8.92;89.85
